Time;durP1;ratioP1;P1;durP2;ratioP2;P2;SDS_P1;SDS_P2;PMS_P1;PMS_P2;Temp;Humidity;BMP_temperature;BMP_pressure;BME280_temperature;BME280_humidity;BME280_pressure;Samples;Min_cycle;Max_cycle;Signal;HPM_P1;HPM_P2
2022/05/09 00:02:23;;;;;;;8.30;5.53;;;11.60;33.10;;;;;;5033352;28;20175;-70
2022/05/09 00:04:49;;;;;;;6.97;6.37;;;11.60;33.50;;;;;;5033932;28;20262;-70
2022/05/09 00:07:14;;;;;;;7.53;5.80;;;11.60;33.40;;;;;;5033590;28;20673;-70
2022/05/09 00:09:40;;;;;;;6.23;5.33;;;11.60;33.50;;;;;;5033683;28;20717;-70
2022/05/09 00:12:06;;;;;;;6.93;6.33;;;11.50;34.10;;;;;;5033510;28;20198;-71
2022/05/09 00:14:31;;;;;;;6.03;5.53;;;11.40;34.00;;;;;;5033780;28;20259;-71
2022/05/09 00:16:57;;;;;;;6.00;5.40;;;11.40;34.20;;;;;;5033439;28;20445;-71
2022/05/09 00:19:23;;;;;;;5.93;5.17;;;11.50;33.80;;;;;;5033262;28;20183;-70
2022/05/09 00:21:50;;;;;;;7.13;6.53;;;11.40;33.90;;;;;;5033275;28;20643;-71
2022/05/09 00:24:17;;;;;;;8.00;5.33;;;11.30;34.30;;;;;;5033255;28;20179;-70
2022/05/09 00:26:44;;;;;;;5.57;5.07;;;11.30;34.40;;;;;;5033428;28;20408;-70
2022/05/09 00:29:11;;;;;;;6.03;5.20;;;11.30;34.50;;;;;;5033105;28;20406;-70
2022/05/09 00:31:38;;;;;;;8.03;6.80;;;11.20;34.80;;;;;;5033525;28;20820;-70
2022/05/09 00:34:04;;;;;;;6.03;5.23;;;11.20;35.00;;;;;;5033317;28;20512;-71
2022/05/09 00:36:31;;;;;;;6.33;5.73;;;11.20;35.30;;;;;;5032163;28;20454;-70
2022/05/09 00:38:58;;;;;;;5.03;4.53;;;11.20;35.30;;;;;;5032958;28;20210;-70
2022/05/09 00:41:40;;;;;;;6.70;5.83;;;11.20;34.60;;;;;;5033428;28;20438;-70
2022/05/09 00:44:26;;;;;;;8.47;6.33;;;11.20;35.10;;;;;;5033071;28;20408;-70
2022/05/09 00:46:54;;;;;;;8.37;6.57;;;11.20;35.00;;;;;;5033944;28;20406;-69
2022/05/09 00:49:30;;;;;;;7.40;5.70;;;11.20;35.20;;;;;;5032963;28;20825;-69
2022/05/09 00:52:05;;;;;;;6.77;6.17;;;11.20;34.70;;;;;;5035804;28;20471;-70
2022/05/09 00:54:39;;;;;;;7.70;5.20;;;11.10;35.70;;;;;;5042925;28;20431;-70
2022/05/09 00:57:10;;;;;;;5.50;5.00;;;11.00;35.70;;;;;;5042720;28;20402;-70
2022/05/09 00:59:38;;;;;;;5.33;4.93;;;11.00;36.10;;;;;;5042532;28;20441;-70
2022/05/09 01:02:04;;;;;;;6.40;5.80;;;10.90;35.80;;;;;;5042177;28;20916;-69
2022/05/09 01:04:38;;;;;;;7.57;6.67;;;10.90;36.70;;;;;;5033375;28;20417;-70
2022/05/09 01:07:04;;;;;;;6.73;5.73;;;10.90;37.00;;;;;;5042411;28;20429;-70
2022/05/09 01:09:29;;;;;;;7.30;5.80;;;10.90;36.20;;;;;;5041759;28;20497;-70
2022/05/09 01:11:55;;;;;;;8.10;5.90;;;10.80;36.90;;;;;;5041682;28;20782;-70
2022/05/09 01:14:25;;;;;;;8.57;5.50;;;10.80;36.90;;;;;;5042288;28;20196;-70
2022/05/09 01:16:51;;;;;;;12.40;6.83;;;10.80;37.50;;;;;;5037997;28;20183;-69
2022/05/09 01:19:31;;;;;;;5.40;4.87;;;10.80;37.60;;;;;;5032000;28;20418;-69
2022/05/09 01:21:58;;;;;;;6.47;5.87;;;10.80;36.90;;;;;;5032319;28;20197;-69
2022/05/09 01:24:25;;;;;;;7.17;6.07;;;10.60;37.60;;;;;;5032255;28;20545;-69
2022/05/09 01:26:51;;;;;;;6.10;4.90;;;10.70;37.50;;;;;;5032296;28;20420;-70
2022/05/09 01:29:32;;;;;;;5.80;5.20;;;10.60;37.40;;;;;;5030628;28;20425;-70
2022/05/09 01:31:58;;;;;;;6.97;6.17;;;10.50;37.60;;;;;;5030734;28;20569;-70
2022/05/09 01:34:23;;;;;;;5.80;4.70;;;10.50;37.90;;;;;;5032178;28;20424;-70
2022/05/09 01:36:57;;;;;;;8.17;6.57;;;10.50;37.80;;;;;;5032070;28;20910;-70
2022/05/09 01:39:24;;;;;;;6.30;5.70;;;10.40;38.00;;;;;;5031687;28;20260;-70
2022/05/09 01:41:50;;;;;;;7.87;6.77;;;10.40;37.80;;;;;;5032163;28;20413;-70
2022/05/09 01:44:17;;;;;;;6.43;5.80;;;10.30;39.40;;;;;;5031878;28;20438;-70
2022/05/09 01:49:31;;;;;;;10.50;6.53;;;10.30;39.60;;;;;;5031784;28;20417;-68
2022/05/09 01:51:59;;;;;;;7.70;6.03;;;10.40;39.60;;;;;;5031721;28;20421;-68
2022/05/09 01:54:25;;;;;;;6.80;5.77;;;10.40;38.30;;;;;;5031817;28;20425;-68
2022/05/09 01:56:51;;;;;;;5.60;5.10;;;10.30;38.90;;;;;;5031871;28;20490;-68
2022/05/09 01:59:17;;;;;;;7.67;5.90;;;10.30;39.20;;;;;;5031444;28;20421;-68
2022/05/09 02:01:59;;;;;;;6.63;6.03;;;10.40;39.90;;;;;;5031714;28;20204;-69
2022/05/09 02:04:25;;;;;;;7.03;5.07;;;10.40;39.20;;;;;;5030503;28;20700;-67
2022/05/09 02:06:51;;;;;;;6.43;5.80;;;10.30;39.60;;;;;;5031771;28;20428;-68
2022/05/09 02:09:17;;;;;;;6.40;5.80;;;10.20;39.80;;;;;;5031547;28;20418;-69
2022/05/09 02:11:43;;;;;;;6.83;6.10;;;10.20;40.30;;;;;;5031584;28;20620;-68
2022/05/09 02:14:08;;;;;;;6.87;6.27;;;10.20;40.20;;;;;;5031728;28;20909;-68
2022/05/09 02:16:35;;;;;;;6.50;5.90;;;10.10;41.40;;;;;;5031817;28;20252;-68
2022/05/09 02:19:00;;;;;;;7.13;6.43;;;10.00;41.30;;;;;;5031572;28;20576;-68
2022/05/09 02:21:26;;;;;;;7.50;6.70;;;10.00;41.30;;;;;;5030203;28;20594;-69
2022/05/09 02:23:51;;;;;;;9.07;6.50;;;10.00;40.40;;;;;;5032411;28;20219;-68
2022/05/09 02:26:17;;;;;;;5.67;5.00;;;10.00;39.70;;;;;;5035430;28;20170;-68
2022/05/09 02:28:43;;;;;;;5.63;5.03;;;10.00;40.30;;;;;;5035211;28;20173;-68
2022/05/09 02:31:08;;;;;;;7.50;5.93;;;9.90;41.50;;;;;;5035170;28;20535;-68
2022/05/09 02:33:34;;;;;;;7.50;6.20;;;9.90;41.90;;;;;;5035173;28;20239;-68
2022/05/09 02:36:00;;;;;;;8.13;7.30;;;9.80;40.80;;;;;;5035264;28;20167;-68
2022/05/09 02:38:28;;;;;;;6.37;5.60;;;9.90;41.60;;;;;;5034932;28;20178;-68
2022/05/09 02:40:55;;;;;;;14.90;6.20;;;9.80;42.10;;;;;;5035135;28;20449;-68
2022/05/09 02:43:20;;;;;;;6.67;5.60;;;9.70;42.00;;;;;;5035134;28;20428;-67
2022/05/09 02:45:46;;;;;;;12.87;7.93;;;9.60;41.90;;;;;;5035230;28;20894;-70
2022/05/09 02:48:13;;;;;;;9.63;6.83;;;9.60;41.90;;;;;;5034890;28;20185;-69
2022/05/09 02:50:39;;;;;;;10.70;8.27;;;9.60;41.90;;;;;;5035055;28;20449;-69
2022/05/09 02:53:08;;;;;;;11.00;7.50;;;9.60;41.90;;;;;;5034902;28;20496;-70
2022/05/09 02:55:34;;;;;;;6.40;5.80;;;9.60;41.90;;;;;;5035034;28;20415;-70
2022/05/09 02:58:01;;;;;;;9.10;7.20;;;9.60;41.50;;;;;;5034853;28;20409;-70
2022/05/09 03:00:31;;;;;;;7.30;6.57;;;9.60;41.90;;;;;;5034891;28;20428;-70
2022/05/09 03:05:44;;;;;;;7.13;6.30;;;9.40;41.70;;;;;;5034812;28;20421;-69
2022/05/09 03:08:11;;;;;;;8.37;6.57;;;9.40;41.70;;;;;;5033265;28;20421;-69
2022/05/09 03:10:37;;;;;;;7.00;6.30;;;9.40;42.20;;;;;;5034725;28;20570;-69
2022/05/09 03:13:05;;;;;;;7.00;6.30;;;9.50;42.30;;;;;;5034351;28;20470;-70
2022/05/09 03:15:35;;;;;;;6.00;5.50;;;9.40;42.30;;;;;;5033413;28;20425;-70
2022/05/09 03:18:02;;;;;;;11.70;8.73;;;9.40;42.70;;;;;;5034405;28;20408;-70
2022/05/09 03:20:28;;;;;;;9.73;7.57;;;9.30;43.70;;;;;;5034410;28;20452;-70
2022/05/09 03:22:54;;;;;;;6.73;6.00;;;9.50;44.10;;;;;;5034770;28;20467;-70
2022/05/09 03:25:20;;;;;;;7.10;6.00;;;9.50;42.70;;;;;;5034562;28;20425;-69
2022/05/09 03:27:45;;;;;;;10.80;7.13;;;9.50;43.70;;;;;;5034446;28;20414;-70
2022/05/09 03:30:13;;;;;;;10.80;7.90;;;9.50;42.50;;;;;;5034593;28;20277;-70
2022/05/09 03:32:39;;;;;;;11.97;6.50;;;9.50;43.40;;;;;;5034763;28;20191;-70
2022/05/09 03:35:05;;;;;;;7.37;6.67;;;9.50;43.20;;;;;;5034936;28;20411;-69
2022/05/09 03:37:31;;;;;;;9.77;6.43;;;9.50;42.70;;;;;;5033952;28;20174;-72
2022/05/09 03:39:57;;;;;;;9.07;7.20;;;9.50;42.60;;;;;;5034119;28;20573;-70
2022/05/09 03:42:23;;;;;;;8.37;7.57;;;9.30;42.80;;;;;;5034159;28;20270;-71
2022/05/09 03:44:48;;;;;;;8.07;5.93;;;9.30;43.60;;;;;;5034259;28;20188;-70
2022/05/09 03:47:15;;;;;;;9.13;7.57;;;9.30;42.80;;;;;;5033819;28;20488;-70
2022/05/09 03:49:40;;;;;;;7.07;6.37;;;9.30;43.40;;;;;;5034107;28;20233;-71
2022/05/09 03:52:06;;;;;;;8.47;7.50;;;9.20;43.50;;;;;;5034105;28;20498;-71
2022/05/09 03:54:31;;;;;;;7.47;6.57;;;9.30;42.80;;;;;;5033897;28;20654;-71
2022/05/09 03:56:57;;;;;;;11.70;8.93;;;9.30;42.30;;;;;;5033866;28;20645;-71
2022/05/09 03:59:22;;;;;;;9.30;7.27;;;9.20;42.70;;;;;;5033960;28;20181;-71
2022/05/09 04:01:48;;;;;;;9.97;6.97;;;9.20;43.40;;;;;;5033612;28;20170;-71
2022/05/09 04:04:14;;;;;;;6.63;5.93;;;9.10;43.00;;;;;;5033939;28;20230;-71
2022/05/09 04:06:39;;;;;;;8.20;6.73;;;9.10;43.30;;;;;;5033709;28;20209;-71
2022/05/09 04:09:05;;;;;;;8.10;7.03;;;9.10;43.80;;;;;;5033622;28;20548;-71
2022/05/09 04:11:31;;;;;;;6.57;5.97;;;9.20;43.30;;;;;;5033685;28;20201;-71
2022/05/09 04:13:56;;;;;;;7.40;6.70;;;9.40;42.60;;;;;;5033528;28;20224;-70
2022/05/09 04:19:06;;;;;;;8.10;6.80;;;9.50;41.80;;;;;;5033267;28;20189;-70
2022/05/09 04:21:32;;;;;;;8.90;8.00;;;9.50;41.90;;;;;;5087605;22;20494;-70
2022/05/09 04:23:58;;;;;;;8.93;8.03;;;9.60;42.00;;;;;;5073549;28;20667;-72
2022/05/09 04:26:27;;;;;;;13.07;8.10;;;9.60;41.90;;;;;;5073614;28;20487;-68
2022/05/09 04:28:53;;;;;;;6.93;6.23;;;9.70;42.00;;;;;;5073210;28;20407;-69
2022/05/09 04:31:22;;;;;;;10.07;7.13;;;9.80;42.10;;;;;;5073281;28;20437;-70
2022/05/09 04:33:47;;;;;;;8.93;7.10;;;9.80;42.30;;;;;;5073175;28;20215;-69
2022/05/09 04:36:13;;;;;;;8.67;7.07;;;9.90;42.20;;;;;;5073172;28;20419;-71
2022/05/09 04:38:41;;;;;;;7.50;6.70;;;10.00;40.80;;;;;;5072904;28;20172;-68
2022/05/09 04:41:08;;;;;;;7.63;6.50;;;10.00;40.50;;;;;;5073532;28;20673;-69
2022/05/09 04:43:36;;;;;;;11.17;6.90;;;10.00;40.80;;;;;;5076300;28;20412;-70
2022/05/09 04:46:03;;;;;;;7.77;7.07;;;10.00;41.30;;;;;;5073054;28;20928;-68
2022/05/09 04:48:29;;;;;;;9.93;8.30;;;10.10;41.00;;;;;;5072319;28;20415;-69
2022/05/09 04:50:54;;;;;;;9.80;8.67;;;10.20;41.10;;;;;;5072767;28;20465;-68
2022/05/09 04:53:20;;;;;;;7.33;6.40;;;10.20;41.00;;;;;;5072893;28;20208;-69
2022/05/09 04:55:46;;;;;;;10.43;6.20;;;10.30;41.60;;;;;;5072873;28;20173;-71
2022/05/09 04:58:14;;;;;;;7.80;7.00;;;10.50;40.40;;;;;;5072612;28;20469;-69
2022/05/09 05:00:39;;;;;;;8.80;8.00;;;10.60;39.90;;;;;;5072359;28;20473;-68
2022/05/09 05:03:05;;;;;;;9.53;7.30;;;10.80;37.70;;;;;;5072534;28;20453;-71
2022/05/09 05:05:30;;;;;;;9.47;6.50;;;10.90;37.90;;;;;;5068431;28;20181;-69
2022/05/09 05:07:56;;;;;;;8.53;7.13;;;11.00;37.70;;;;;;5067057;28;20573;-71
2022/05/09 05:10:22;;;;;;;7.03;6.33;;;11.20;39.90;;;;;;5066852;28;20216;-71
2022/05/09 05:12:47;;;;;;;7.93;6.77;;;11.90;40.40;;;;;;5071762;28;20369;-71
2022/05/09 05:15:14;;;;;;;8.00;7.30;;;13.10;34.40;;;;;;5072485;28;20437;-71
2022/05/09 05:17:40;;;;;;;7.83;7.13;;;14.30;34.70;;;;;;5072811;28;20535;-71
2022/05/09 05:20:09;;;;;;;8.10;7.40;;;15.50;28.30;;;;;;5072033;28;20458;-72
2022/05/09 05:22:37;;;;;;;8.20;7.60;;;16.70;27.20;;;;;;5072396;28;20412;-70
2022/05/09 05:25:03;;;;;;;9.87;9.27;;;17.90;24.20;;;;;;5072968;28;20420;-71
2022/05/09 05:27:29;;;;;;;13.37;12.40;;;18.90;22.20;;;;;;5071843;28;20935;-69
2022/05/09 05:29:58;;;;;;;13.33;12.43;;;19.90;19.10;;;;;;5072367;28;20526;-69
2022/05/09 05:32:26;;;;;;;15.07;14.27;;;20.60;17.50;;;;;;5070824;28;20216;-69
2022/05/09 05:34:52;;;;;;;14.27;13.57;;;21.50;15.20;;;;;;5071932;28;20428;-71
2022/05/09 05:37:18;;;;;;;15.07;14.37;;;22.20;14.70;;;;;;5071875;28;20955;-68
2022/05/09 05:39:45;;;;;;;16.90;16.00;;;22.80;11.90;;;;;;5072060;28;20496;-70
2022/05/09 05:42:11;;;;;;;14.87;14.27;;;23.30;11.60;;;;;;5072141;28;20400;-71
2022/05/09 05:44:37;;;;;;;17.17;16.17;;;23.80;11.80;;;;;;5072230;28;20989;-73
2022/05/09 05:47:12;;;;;;;16.90;16.00;;;24.40;10.60;;;;;;5072899;28;20516;-74
2022/05/09 05:49:39;;;;;;;17.30;16.30;;;24.60;9.90;;;;;;5071560;28;20396;-72
2022/05/09 05:52:06;;;;;;;17.67;16.60;;;25.20;9.80;;;;;;5071022;28;20470;-72
2022/05/09 05:54:35;;;;;;;18.00;17.00;;;25.60;9.20;;;;;;5071745;28;20533;-72
2022/05/09 05:57:02;;;;;;;16.80;15.80;;;25.70;7.50;;;;;;5072332;28;20437;-72
2022/05/09 05:59:28;;;;;;;16.83;16.03;;;26.10;7.50;;;;;;5073690;28;20423;-72
2022/05/09 06:01:54;;;;;;;17.50;16.50;;;26.10;6.40;;;;;;5076298;28;20521;-72
2022/05/09 06:04:20;;;;;;;17.57;16.67;;;26.40;6.80;;;;;;5075048;28;20424;-72
2022/05/09 06:06:46;;;;;;;17.73;16.93;;;26.40;7.10;;;;;;5075601;28;20442;-72
2022/05/09 06:09:13;;;;;;;17.60;16.70;;;26.90;6.30;;;;;;5075950;28;20408;-72
2022/05/09 06:11:42;;;;;;;17.43;16.50;;;27.20;4.90;;;;;;5074521;28;20444;-72
2022/05/09 06:14:12;;;;;;;19.13;18.03;;;27.50;6.00;;;;;;5074360;28;20474;-71
2022/05/09 06:16:38;;;;;;;17.60;16.53;;;28.00;4.10;;;;;;5075731;28;20496;-71
2022/05/09 06:19:04;;;;;;;18.30;17.27;;;28.20;4.50;;;;;;5075810;28;20912;-72
2022/05/09 06:21:33;;;;;;;17.47;16.40;;;28.20;4.10;;;;;;5075471;28;20772;-72
2022/05/09 06:23:59;;;;;;;19.30;17.97;;;27.70;4.40;;;;;;5075795;28;20424;-72
2022/05/09 06:26:25;;;;;;;17.60;16.70;;;27.30;4.80;;;;;;5074420;28;20420;-72
2022/05/09 06:28:51;;;;;;;17.20;16.40;;;27.10;5.00;;;;;;5075279;28;20416;-72
2022/05/09 06:31:17;;;;;;;18.20;17.00;;;26.60;5.20;;;;;;5075424;28;20202;-72
2022/05/09 06:33:43;;;;;;;20.00;18.73;;;26.40;5.60;;;;;;5074071;28;20209;-72
2022/05/09 06:36:08;;;;;;;17.80;16.67;;;25.80;6.00;;;;;;5075319;28;20416;-69
2022/05/09 06:38:34;;;;;;;18.43;17.43;;;25.20;6.80;;;;;;5075504;28;20166;-70
2022/05/09 06:41:01;;;;;;;17.80;16.30;;;24.10;7.70;;;;;;5075772;28;20230;-71
2022/05/09 06:43:26;;;;;;;20.00;18.43;;;24.20;9.00;;;;;;5075777;28;20170;-71
2022/05/09 06:45:52;;;;;;;18.63;17.47;;;23.10;9.70;;;;;;5074462;28;20779;-71
2022/05/09 06:48:19;;;;;;;19.70;18.50;;;23.40;9.30;;;;;;5075495;28;20188;-71
2022/05/09 06:50:44;;;;;;;17.23;16.30;;;23.30;8.80;;;;;;5073096;28;20479;-71
2022/05/09 06:53:11;;;;;;;18.27;17.27;;;23.70;10.10;;;;;;5074483;28;20491;-70
2022/05/09 06:55:37;;;;;;;18.80;17.50;;;24.40;8.90;;;;;;5051043;28;20609;-69
2022/05/09 06:58:12;;;;;;;17.83;16.83;;;25.40;7.80;;;;;;5050459;28;20413;-71
2022/05/09 07:00:38;;;;;;;16.37;15.37;;;26.20;6.80;;;;;;5057637;28;20197;-71
2022/05/09 07:03:04;;;;;;;18.97;17.87;;;26.10;7.20;;;;;;5066466;28;20447;-71
2022/05/09 07:05:31;;;;;;;17.73;16.83;;;27.00;5.70;;;;;;5069016;28;21036;-71
2022/05/09 07:07:57;;;;;;;18.27;16.97;;;26.60;5.20;;;;;;5069742;28;20481;-71
2022/05/09 07:10:23;;;;;;;17.53;16.43;;;25.80;6.20;;;;;;5066223;28;20546;-72
2022/05/09 07:12:52;;;;;;;16.17;15.30;;;23.20;7.60;;;;;;5068654;28;20465;-72
2022/05/09 07:15:29;;;;;;;17.73;16.53;;;24.00;9.60;;;;;;5071884;28;20446;-71
2022/05/09 07:17:55;;;;;;;16.83;16.03;;;25.50;7.60;;;;;;5053706;28;20425;-71
2022/05/09 07:20:23;;;;;;;17.77;16.53;;;26.40;6.10;;;;;;5072696;28;20498;-71
2022/05/09 07:22:51;;;;;;;18.13;17.20;;;27.40;5.50;;;;;;5066740;28;20443;-71
2022/05/09 07:25:18;;;;;;;17.10;16.13;;;27.50;4.60;;;;;;5074476;28;20469;-71
2022/05/09 07:27:44;;;;;;;17.23;16.27;;;26.30;5.90;;;;;;5074186;28;20411;-71
2022/05/09 07:30:12;;;;;;;16.33;15.53;;;27.00;4.90;;;;;;5072995;28;20929;-71
2022/05/09 07:32:37;;;;;;;16.10;15.33;;;26.10;4.80;;;;;;5073542;28;20205;-71
2022/05/09 07:35:05;;;;;;;19.40;17.27;;;26.20;6.90;;;;;;5074054;28;20416;-71
2022/05/09 07:37:30;;;;;;;18.27;17.20;;;24.00;7.20;;;;;;5073658;28;20673;-71
2022/05/09 07:39:56;;;;;;;17.90;17.00;;;25.30;7.60;;;;;;5073075;28;20429;-71
2022/05/09 07:42:21;;;;;;;17.33;16.43;;;25.60;7.20;;;;;;5066206;28;20190;-71
2022/05/09 07:44:47;;;;;;;18.63;17.53;;;25.50;7.10;;;;;;5072212;28;20190;-71
2022/05/09 07:47:13;;;;;;;17.00;16.00;;;24.30;7.00;;;;;;5073676;28;20170;-71
2022/05/09 07:49:39;;;;;;;18.53;17.43;;;23.50;8.60;;;;;;5057119;28;20459;-71
2022/05/09 07:52:06;;;;;;;19.00;17.80;;;23.50;10.00;;;;;;5053150;28;20179;-71
2022/05/09 07:54:32;;;;;;;17.27;16.10;;;23.70;10.10;;;;;;5070395;28;20178;-71
2022/05/09 07:56:57;;;;;;;17.43;16.50;;;24.40;10.60;;;;;;5073479;28;20418;-71
2022/05/09 07:59:23;;;;;;;18.47;17.33;;;24.70;9.20;;;;;;5064460;28;20687;-72
2022/05/09 08:01:49;;;;;;;16.43;15.63;;;;;;;;;;5059594;28;20202;-73
2022/05/09 08:04:14;;;;;;;17.70;16.70;;;22.30;12.00;;;;;;5073249;28;20185;-73
2022/05/09 08:06:40;;;;;;;17.03;15.93;;;22.20;12.40;;;;;;5054139;28;20427;-73
2022/05/09 08:09:06;;;;;;;18.40;16.80;;;22.70;12.50;;;;;;5053122;28;20665;-73
2022/05/09 08:11:31;;;;;;;17.70;16.70;;;22.90;11.90;;;;;;5053051;28;20202;-73
2022/05/09 08:13:57;;;;;;;16.70;15.70;;;22.30;11.90;;;;;;5068852;28;20209;-73
2022/05/09 08:16:26;;;;;;;15.83;15.13;;;21.90;11.90;;;;;;5073358;28;20199;-73
2022/05/09 08:18:52;;;;;;;15.57;14.87;;;21.80;12.80;;;;;;5053355;28;20174;-73
2022/05/09 08:21:18;;;;;;;16.40;15.50;;;22.10;12.60;;;;;;5052331;28;20447;-73
2022/05/09 08:23:43;;;;;;;16.00;15.20;;;22.10;12.40;;;;;;5068098;28;20192;-74
2022/05/09 08:26:09;;;;;;;15.97;15.03;;;21.70;12.90;;;;;;5071834;28;20665;-73
2022/05/09 08:28:34;;;;;;;15.90;15.03;;;21.50;13.10;;;;;;5072612;28;20212;-72
2022/05/09 08:31:01;;;;;;;15.03;14.23;;;21.70;13.60;;;;;;5071650;28;20229;-73
2022/05/09 08:33:29;;;;;;;14.70;13.90;;;21.10;13.80;;;;;;5072783;28;20391;-73
2022/05/09 08:35:55;;;;;;;16.87;16.00;;;21.40;14.30;;;;;;5072799;28;20410;-73
2022/05/09 08:38:21;;;;;;;16.43;15.37;;;21.20;13.90;;;;;;5071664;28;20408;-73
2022/05/09 08:41:07;;;;;;;16.83;15.83;;;21.60;13.70;;;;;;5072712;28;20855;-73
2022/05/09 08:43:59;;;;;;;16.00;15.00;;;21.60;13.20;;;;;;5072421;28;20428;-73
2022/05/09 08:46:44;;;;;;;17.10;15.83;;;20.80;13.70;;;;;;5071521;28;20412;-73
2022/05/09 08:49:37;;;;;;;15.23;14.33;;;20.10;15.00;;;;;;5072237;28;20508;-73
2022/05/09 08:52:02;;;;;;;15.30;14.40;;;19.50;16.60;;;;;;5072540;28;20477;-73
2022/05/09 08:54:29;;;;;;;14.97;13.97;;;19.60;17.30;;;;;;5060293;28;20987;-73
2022/05/09 08:57:02;;;;;;;14.70;13.90;;;19.70;17.20;;;;;;5059116;28;20635;-73
2022/05/09 08:59:36;;;;;;;14.87;14.07;;;19.20;17.20;;;;;;5072353;28;20412;-73
2022/05/09 09:02:15;;;;;;;14.40;13.50;;;19.20;18.10;;;;;;5071973;28;20432;-73
2022/05/09 09:04:49;;;;;;;15.23;14.27;;;19.50;17.90;;;;;;5072376;28;20419;-73
2022/05/09 09:07:30;;;;;;;14.33;13.63;;;19.60;17.40;;;;;;5072361;28;20409;-73
2022/05/09 09:10:48;;;;;;;11.50;10.90;;;19.80;16.40;;;;;;5072468;28;20794;-73
2022/05/09 09:13:28;;;;;;;14.47;13.57;;;20.30;16.80;;;;;;5066655;28;20476;-73
2022/05/09 09:16:19;;;;;;;16.03;14.90;;;20.40;16.20;;;;;;5071114;28;20424;-73
2022/05/09 09:19:05;;;;;;;14.30;13.40;;;19.60;17.20;;;;;;5072272;28;20416;-73
2022/05/09 09:21:39;;;;;;;12.80;12.07;;;19.50;17.70;;;;;;5072062;28;20546;-72
2022/05/09 09:24:49;;;;;;;13.13;12.30;;;19.40;17.60;;;;;;5072176;28;20796;-73
2022/05/09 09:27:33;;;;;;;14.83;13.93;;;19.30;18.20;;;;;;5061062;28;20442;-73
2022/05/09 09:30:02;;;;;;;13.33;12.60;;;19.50;18.10;;;;;;5072272;28;20929;-73
2022/05/09 09:32:28;;;;;;;14.37;13.40;;;19.80;17.30;;;;;;5070661;28;20514;-73
2022/05/09 09:35:03;;;;;;;14.47;13.63;;;19.70;17.50;;;;;;5072539;28;20420;-73
2022/05/09 09:37:58;;;;;;;14.10;12.90;;;19.70;18.10;;;;;;5072488;28;20173;-72
2022/05/09 09:40:24;;;;;;;13.23;12.50;;;19.40;18.60;;;;;;5072283;28;20432;-73
2022/05/09 09:42:56;;;;;;;15.47;14.30;;;19.60;18.70;;;;;;5068569;28;20803;-72
2022/05/09 09:45:44;;;;;;;15.87;14.80;;;20.10;18.30;;;;;;5065942;28;20268;-73
2022/05/09 09:48:20;;;;;;;15.10;14.20;;;20.70;17.00;;;;;;5069810;28;20508;-72
2022/05/09 09:51:07;;;;;;;14.50;13.73;;;20.70;17.00;;;;;;5071799;28;20466;-73
2022/05/09 09:53:48;;;;;;;15.53;14.53;;;20.40;16.90;;;;;;5056574;28;20456;-73
2022/05/09 09:56:22;;;;;;;14.90;14.10;;;20.20;17.40;;;;;;5072498;28;20423;-73
2022/05/09 09:58:52;;;;;;;17.10;16.10;;;20.50;16.90;;;;;;5072867;28;20844;-73
2022/05/09 10:01:31;;;;;;;15.80;14.90;;;20.50;16.90;;;;;;5071564;28;20436;-73
2022/05/09 10:04:11;;;;;;;15.73;14.70;;;20.90;16.60;;;;;;5071836;28;20430;-73
2022/05/09 10:07:07;;;;;;;16.17;15.07;;;20.70;17.00;;;;;;5070584;28;20450;-72
2022/05/09 10:09:39;;;;;;;15.73;14.83;;;20.90;17.00;;;;;;5070042;28;21001;-73
2022/05/09 10:12:16;;;;;;;14.33;13.53;;;21.30;16.10;;;;;;5071580;28;20456;-73
2022/05/09 10:14:42;;;;;;;14.93;14.13;;;21.70;15.30;;;;;;5071722;28;20449;-72
2022/05/09 10:17:17;;;;;;;14.70;13.93;;;21.40;15.00;;;;;;5071436;28;20432;-69
2022/05/09 10:19:43;;;;;;;15.90;14.90;;;21.50;15.00;;;;;;5071944;28;20177;-73
2022/05/09 10:25:17;;;;;;;14.47;13.17;;;21.90;14.10;;;;;;5076623;28;20435;-74
2022/05/09 10:27:44;;;;;;;14.30;13.50;;;21.70;13.30;;;;;;5071687;28;20412;-73
2022/05/09 10:30:29;;;;;;;14.23;13.53;;;21.60;12.80;;;;;;5073709;28;20416;-76
2022/05/09 10:32:59;;;;;;;14.93;14.07;;;21.70;12.00;;;;;;5074844;28;20516;-74
2022/05/09 10:35:45;;;;;;;14.13;13.43;;;22.00;11.70;;;;;;5073621;28;20424;-73
2022/05/09 10:38:19;;;;;;;14.77;14.07;;;22.10;9.00;;;;;;5073194;28;20419;-74
2022/05/09 10:40:50;;;;;;;14.77;13.97;;;21.90;9.90;;;;;;5073141;28;20431;-74
2022/05/09 10:43:26;;;;;;;16.13;15.03;;;21.90;9.20;;;;;;5072896;28;20434;-75
2022/05/09 10:45:53;;;;;;;15.60;14.90;;;21.60;9.40;;;;;;5075292;28;20420;-74
2022/05/09 10:48:21;;;;;;;13.43;12.73;;;21.50;9.40;;;;;;5077142;28;20802;-74
2022/05/09 10:50:54;;;;;;;15.60;14.70;;;21.70;9.40;;;;;;5076389;28;20435;-74
2022/05/09 10:53:31;;;;;;;14.13;13.40;;;21.90;10.30;;;;;;5076370;28;20546;-74
2022/05/09 10:56:09;;;;;;;14.73;13.73;;;22.40;9.20;;;;;;5076969;28;20416;-74
2022/05/09 10:58:43;;;;;;;15.53;14.73;;;22.40;8.60;;;;;;5075474;28;20420;-74
2022/05/09 11:01:11;;;;;;;15.00;14.30;;;22.80;8.90;;;;;;5075794;28;20787;-74
2022/05/09 11:03:41;;;;;;;15.20;14.40;;;23.30;7.90;;;;;;5075119;28;20420;-74
2022/05/09 11:06:16;;;;;;;15.40;14.50;;;23.50;8.10;;;;;;5075408;28;20525;-74
2022/05/09 11:09:06;;;;;;;14.30;13.63;;;23.70;7.30;;;;;;5075701;28;20416;-74
2022/05/09 11:11:37;;;;;;;14.60;13.67;;;23.30;7.60;;;;;;5074892;28;21102;-74
2022/05/09 11:14:23;;;;;;;14.47;13.80;;;23.50;7.80;;;;;;5074193;28;20516;-74
2022/05/09 11:17:10;;;;;;;15.13;14.17;;;23.80;7.30;;;;;;5075625;28;20408;-73
2022/05/09 11:20:03;;;;;;;15.00;14.40;;;24.10;6.80;;;;;;5075666;28;20447;-73
2022/05/09 11:23:00;;;;;;;16.20;15.20;;;24.10;5.70;;;;;;5075674;28;20855;-73
2022/05/09 11:25:50;;;;;;;15.00;14.30;;;24.30;6.30;;;;;;5071869;28;20428;-73
2022/05/09 11:28:37;;;;;;;14.90;14.10;;;24.30;6.70;;;;;;5075258;28;20982;-73
2022/05/09 11:31:27;;;;;;;14.60;13.90;;;24.10;6.20;;;;;;5074080;28;20440;-74
2022/05/09 11:34:25;;;;;;;15.20;14.47;;;23.70;6.70;;;;;;5075239;28;20459;-73
2022/05/09 11:37:48;;;;;;;15.17;14.37;;;23.60;7.10;;;;;;5074852;28;20921;-73
2022/05/09 11:40:31;;;;;;;15.03;14.33;;;23.20;8.20;;;;;;5065707;28;20439;-72
2022/05/09 11:43:31;;;;;;;15.73;14.97;;;22.80;7.80;;;;;;5076274;28;20439;-74
2022/05/09 11:46:22;;;;;;;14.60;13.90;;;22.70;8.30;;;;;;5075861;28;20538;-74
2022/05/09 11:49:17;;;;;;;15.43;14.73;;;22.80;8.20;;;;;;5075309;28;20483;-74
2022/05/09 11:51:46;;;;;;;14.50;13.80;;;22.80;8.10;;;;;;5047486;28;20437;-74
2022/05/09 11:54:36;;;;;;;14.83;14.23;;;22.60;8.80;;;;;;5075269;28;20466;-75
2022/05/09 11:57:10;;;;;;;14.07;13.50;;;22.80;8.20;;;;;;5072657;28;20423;-74
2022/05/09 11:59:47;;;;;;;14.67;13.97;;;23.30;8.20;;;;;;5074032;28;20412;-74
2022/05/09 12:02:13;;;;;;;14.70;13.80;;;23.40;6.90;;;;;;5075104;28;20788;-74
2022/05/09 12:04:47;;;;;;;15.40;14.50;;;23.70;7.80;;;;;;5074992;28;20404;-75
2022/05/09 12:07:21;;;;;;;15.40;14.40;;;23.40;7.80;;;;;;5073646;28;20424;-74
2022/05/09 12:10:03;;;;;;;15.00;14.30;;;23.10;8.00;;;;;;5076021;28;20820;-74
2022/05/09 12:12:37;;;;;;;15.67;14.80;;;23.10;7.90;;;;;;5077663;28;20463;-73
2022/05/09 12:15:05;;;;;;;15.47;14.30;;;22.60;8.80;;;;;;5073060;28;20407;-74
2022/05/09 12:17:36;;;;;;;15.03;14.27;;;22.40;9.20;;;;;;5073262;28;20423;-73
2022/05/09 12:20:27;;;;;;;14.20;13.40;;;22.50;9.30;;;;;;5073265;28;20415;-73
2022/05/09 12:22:56;;;;;;;15.50;14.60;;;22.60;8.60;;;;;;5073397;28;20430;-74
2022/05/09 12:25:34;;;;;;;14.03;13.30;;;22.50;9.30;;;;;;5073747;28;20412;-74
2022/05/09 12:28:18;;;;;;;14.50;13.83;;;22.50;9.30;;;;;;5073404;28;20782;-74
2022/05/09 12:30:53;;;;;;;15.17;14.37;;;22.50;9.30;;;;;;5073597;28;20440;-74
2022/05/09 12:33:37;;;;;;;14.33;13.73;;;21.90;9.20;;;;;;5073237;28;20456;-74
2022/05/09 12:36:06;;;;;;;14.13;13.53;;;22.20;9.10;;;;;;5073361;28;20905;-74
2022/05/09 12:38:36;;;;;;;15.13;14.30;;;22.50;8.90;;;;;;5073166;28;20459;-74
2022/05/09 12:41:24;;;;;;;15.20;14.07;;;22.10;9.00;;;;;;5071125;28;20804;-74
2022/05/09 12:43:58;;;;;;;15.27;14.47;;;22.00;9.60;;;;;;5069443;28;20447;-69
2022/05/09 12:46:30;;;;;;;15.53;14.73;;;22.10;9.00;;;;;;5064645;28;20506;-68
2022/05/09 12:48:58;;;;;;;14.53;13.90;;;22.20;9.10;;;;;;5072337;28;20420;-68
2022/05/09 12:51:26;;;;;;;14.00;13.23;;;22.00;9.50;;;;;;5058697;28;20468;-67
2022/05/09 12:53:52;;;;;;;14.53;13.83;;;21.70;9.70;;;;;;5052306;28;20465;-68
2022/05/09 12:56:23;;;;;;;14.60;13.70;;;21.80;10.10;;;;;;5064903;28;20420;-68
2022/05/09 12:59:01;;;;;;;14.67;13.57;;;22.00;9.70;;;;;;5072296;28;20412;-67
2022/05/09 13:01:27;;;;;;;14.97;14.20;;;22.00;10.10;;;;;;5072559;28;20430;-66
2022/05/09 13:03:56;;;;;;;14.57;13.87;;;22.10;9.00;;;;;;5056188;28;20421;-67
2022/05/09 13:06:27;;;;;;;15.27;14.30;;;22.40;9.30;;;;;;5064816;28;20182;-68
2022/05/09 13:08:53;;;;;;;15.70;14.90;;;22.40;9.20;;;;;;5070692;28;20523;-67
2022/05/09 13:11:22;;;;;;;15.03;14.23;;;22.50;9.30;;;;;;5072362;28;20478;-67